METAR

ENBN 022350Z AUTO VRB03KT 9999NDV NCD 01/M05 Q1039

ENMS 022350Z AUTO VRB03KT 9999 NCD M10/M12 Q1040 RMK WIND 412FT 16004KT

ENNM 022350Z AUTO 11010KT 9999 NCD 00/M04 Q1039 REFZRA

ENOL 022350Z 14012KT CAVOK 00/M03 Q1037 NOSIG

ENST 021950Z 03004KT CAVOK M01/M06 Q1039 RMK WIND 300FT VRB02KT

ENVA 022350Z AUTO 11009KT 9999 NCD M02/M06 Q1038 RMK WIND 670FT 14014KT



TAF

TAF ENVA 021700Z 0218/0318 10007KT CAVOK